sensor_id;sensor_type;location;lat;lon;timestamp;P1;durP1;ratioP1;P2;durP2;ratioP2
27402;SDS011;14862;49.494;8.530;2023-04-03T00:00:29;5.30;;;2.28;;
27402;SDS011;14862;49.494;8.530;2023-04-03T00:02:54;5.55;;;2.38;;
27402;SDS011;14862;49.494;8.530;2023-04-03T00:05:20;5.35;;;2.60;;
27402;SDS011;14862;49.494;8.530;2023-04-03T00:07:45;3.65;;;2.20;;
27402;SDS011;14862;49.494;8.530;2023-04-03T00:10:10;4.72;;;2.13;;
27402;SDS011;14862;49.494;8.530;2023-04-03T00:12:35;4.25;;;2.78;;
27402;SDS011;14862;49.494;8.530;2023-04-03T00:15:01;3.60;;;2.70;;
27402;SDS011;14862;49.494;8.530;2023-04-03T00:17:26;7.82;;;2.58;;
27402;SDS011;14862;49.494;8.530;2023-04-03T00:19:51;5.70;;;2.17;;
27402;SDS011;14862;49.494;8.530;2023-04-03T00:22:17;2.80;;;2.08;;
27402;SDS011;14862;49.494;8.530;2023-04-03T00:24:42;6.55;;;2.33;;
27402;SDS011;14862;49.494;8.530;2023-04-03T00:27:07;4.25;;;2.60;;
27402;SDS011;14862;49.494;8.530;2023-04-03T00:29:32;5.50;;;2.00;;
27402;SDS011;14862;49.494;8.530;2023-04-03T00:31:58;5.88;;;2.38;;
27402;SDS011;14862;49.494;8.530;2023-04-03T00:34:23;5.15;;;2.25;;
27402;SDS011;14862;49.494;8.530;2023-04-03T00:36:48;5.18;;;2.17;;
27402;SDS011;14862;49.494;8.530;2023-04-03T00:39:13;5.10;;;2.50;;
27402;SDS011;14862;49.494;8.530;2023-04-03T00:41:38;2.83;;;2.17;;
27402;SDS011;14862;49.494;8.530;2023-04-03T00:45:22;4.25;;;2.53;;
27402;SDS011;14862;49.494;8.530;2023-04-03T00:47:09;8.20;;;2.72;;
27402;SDS011;14862;49.494;8.530;2023-04-03T00:49:36;2.42;;;1.92;;
27402;SDS011;14862;49.494;8.530;2023-04-03T00:52:01;3.58;;;2.35;;
27402;SDS011;14862;49.494;8.530;2023-04-03T00:54:27;4.05;;;2.22;;
27402;SDS011;14862;49.494;8.530;2023-04-03T00:56:53;2.67;;;1.90;;
27402;SDS011;14862;49.494;8.530;2023-04-03T00:59:24;4.18;;;2.33;;
27402;SDS011;14862;49.494;8.530;2023-04-03T01:01:52;2.90;;;2.40;;
27402;SDS011;14862;49.494;8.530;2023-04-03T01:04:27;4.20;;;2.42;;
27402;SDS011;14862;49.494;8.530;2023-04-03T01:06:53;6.25;;;2.45;;
27402;SDS011;14862;49.494;8.530;2023-04-03T01:09:19;4.40;;;2.08;;
27402;SDS011;14862;49.494;8.530;2023-04-03T01:11:44;3.58;;;2.17;;
27402;SDS011;14862;49.494;8.530;2023-04-03T01:14:10;3.17;;;2.13;;
27402;SDS011;14862;49.494;8.530;2023-04-03T01:16:35;4.23;;;2.87;;
27402;SDS011;14862;49.494;8.530;2023-04-03T01:19:00;3.60;;;2.00;;
27402;SDS011;14862;49.494;8.530;2023-04-03T01:23:59;4.05;;;2.60;;
27402;SDS011;14862;49.494;8.530;2023-04-03T01:26:28;3.47;;;2.35;;
27402;SDS011;14862;49.494;8.530;2023-04-03T01:28:54;5.38;;;2.67;;
27402;SDS011;14862;49.494;8.530;2023-04-03T01:33:45;4.32;;;2.55;;
27402;SDS011;14862;49.494;8.530;2023-04-03T01:36:14;4.50;;;2.80;;
27402;SDS011;14862;49.494;8.530;2023-04-03T01:38:40;4.70;;;2.85;;
27402;SDS011;14862;49.494;8.530;2023-04-03T01:41:06;5.80;;;2.92;;
27402;SDS011;14862;49.494;8.530;2023-04-03T01:43:31;4.53;;;2.63;;
27402;SDS011;14862;49.494;8.530;2023-04-03T01:45:56;4.28;;;3.38;;
27402;SDS011;14862;49.494;8.530;2023-04-03T01:48:21;5.82;;;3.40;;
27402;SDS011;14862;49.494;8.530;2023-04-03T01:50:47;3.88;;;3.00;;
27402;SDS011;14862;49.494;8.530;2023-04-03T01:53:12;3.38;;;2.92;;
27402;SDS011;14862;49.494;8.530;2023-04-03T01:55:37;4.88;;;3.10;;
27402;SDS011;14862;49.494;8.530;2023-04-03T01:58:03;3.45;;;2.60;;
27402;SDS011;14862;49.494;8.530;2023-04-03T02:00:28;5.15;;;3.15;;
27402;SDS011;14862;49.494;8.530;2023-04-03T02:02:53;5.25;;;2.88;;
27402;SDS011;14862;49.494;8.530;2023-04-03T02:05:18;7.97;;;3.63;;
27402;SDS011;14862;49.494;8.530;2023-04-03T02:07:44;4.90;;;3.15;;
27402;SDS011;14862;49.494;8.530;2023-04-03T02:10:09;5.97;;;3.28;;
27402;SDS011;14862;49.494;8.530;2023-04-03T02:12:35;4.18;;;3.20;;
27402;SDS011;14862;49.494;8.530;2023-04-03T02:15:00;4.30;;;3.30;;
27402;SDS011;14862;49.494;8.530;2023-04-03T02:17:25;7.43;;;3.63;;
27402;SDS011;14862;49.494;8.530;2023-04-03T02:19:51;7.65;;;3.33;;
27402;SDS011;14862;49.494;8.530;2023-04-03T02:22:16;9.45;;;4.18;;
27402;SDS011;14862;49.494;8.530;2023-04-03T02:24:41;7.60;;;4.00;;
27402;SDS011;14862;49.494;8.530;2023-04-03T02:27:07;5.32;;;3.35;;
27402;SDS011;14862;49.494;8.530;2023-04-03T02:29:32;3.60;;;3.30;;
27402;SDS011;14862;49.494;8.530;2023-04-03T02:31:57;6.35;;;3.63;;
27402;SDS011;14862;49.494;8.530;2023-04-03T02:34:23;6.18;;;3.63;;
27402;SDS011;14862;49.494;8.530;2023-04-03T02:36:48;5.68;;;3.30;;
27402;SDS011;14862;49.494;8.530;2023-04-03T02:39:13;7.97;;;3.92;;
27402;SDS011;14862;49.494;8.530;2023-04-03T02:41:38;6.13;;;3.40;;
27402;SDS011;14862;49.494;8.530;2023-04-03T02:44:05;5.50;;;4.00;;
27402;SDS011;14862;49.494;8.530;2023-04-03T02:46:30;5.93;;;4.22;;
27402;SDS011;14862;49.494;8.530;2023-04-03T02:48:56;6.65;;;4.05;;
27402;SDS011;14862;49.494;8.530;2023-04-03T02:51:21;6.07;;;4.25;;
27402;SDS011;14862;49.494;8.530;2023-04-03T02:53:47;5.43;;;3.75;;
27402;SDS011;14862;49.494;8.530;2023-04-03T02:56:13;7.07;;;3.92;;
27402;SDS011;14862;49.494;8.530;2023-04-03T02:58:38;6.22;;;3.80;;
27402;SDS011;14862;49.494;8.530;2023-04-03T03:01:03;11.05;;;4.63;;
27402;SDS011;14862;49.494;8.530;2023-04-03T03:03:28;6.70;;;4.35;;
27402;SDS011;14862;49.494;8.530;2023-04-03T03:08:31;6.60;;;4.15;;
27402;SDS011;14862;49.494;8.530;2023-04-03T03:10:56;6.15;;;4.18;;
27402;SDS011;14862;49.494;8.530;2023-04-03T03:13:22;5.95;;;4.00;;
27402;SDS011;14862;49.494;8.530;2023-04-03T03:15:47;8.25;;;4.68;;
27402;SDS011;14862;49.494;8.530;2023-04-03T03:18:12;7.30;;;4.40;;
27402;SDS011;14862;49.494;8.530;2023-04-03T03:20:37;9.68;;;4.72;;
27402;SDS011;14862;49.494;8.530;2023-04-03T03:23:03;8.20;;;5.20;;
27402;SDS011;14862;49.494;8.530;2023-04-03T03:25:28;6.80;;;4.15;;
27402;SDS011;14862;49.494;8.530;2023-04-03T03:27:53;6.90;;;4.65;;
27402;SDS011;14862;49.494;8.530;2023-04-03T03:30:18;8.43;;;4.40;;
27402;SDS011;14862;49.494;8.530;2023-04-03T03:32:43;7.55;;;4.00;;
27402;SDS011;14862;49.494;8.530;2023-04-03T03:35:09;11.38;;;4.82;;
27402;SDS011;14862;49.494;8.530;2023-04-03T03:37:34;7.75;;;4.00;;
27402;SDS011;14862;49.494;8.530;2023-04-03T03:39:59;9.93;;;4.35;;
27402;SDS011;14862;49.494;8.530;2023-04-03T03:42:25;5.43;;;4.35;;
27402;SDS011;14862;49.494;8.530;2023-04-03T03:44:50;9.73;;;4.65;;
27402;SDS011;14862;49.494;8.530;2023-04-03T03:47:16;8.40;;;4.85;;
27402;SDS011;14862;49.494;8.530;2023-04-03T03:49:42;7.20;;;4.75;;
27402;SDS011;14862;49.494;8.530;2023-04-03T03:52:07;5.55;;;4.50;;
27402;SDS011;14862;49.494;8.530;2023-04-03T03:54:35;7.40;;;5.30;;
27402;SDS011;14862;49.494;8.530;2023-04-03T03:57:00;7.35;;;4.57;;
27402;SDS011;14862;49.494;8.530;2023-04-03T03:59:25;7.72;;;5.35;;
27402;SDS011;14862;49.494;8.530;2023-04-03T04:01:51;7.32;;;5.13;;
27402;SDS011;14862;49.494;8.530;2023-04-03T04:04:16;8.13;;;5.10;;
27402;SDS011;14862;49.494;8.530;2023-04-03T04:06:41;7.22;;;4.65;;
27402;SDS011;14862;49.494;8.530;2023-04-03T04:09:06;7.97;;;4.50;;
27402;SDS011;14862;49.494;8.530;2023-04-03T04:11:32;13.10;;;4.45;;
27402;SDS011;14862;49.494;8.530;2023-04-03T04:13:58;6.75;;;4.47;;
27402;SDS011;14862;49.494;8.530;2023-04-03T04:16:23;7.78;;;4.60;;
27402;SDS011;14862;49.494;8.530;2023-04-03T04:18:48;7.57;;;4.15;;
27402;SDS011;14862;49.494;8.530;2023-04-03T04:21:13;10.03;;;4.70;;
27402;SDS011;14862;49.494;8.530;2023-04-03T04:23:39;7.57;;;4.32;;
27402;SDS011;14862;49.494;8.530;2023-04-03T04:26:04;5.47;;;3.90;;
27402;SDS011;14862;49.494;8.530;2023-04-03T04:28:29;6.03;;;4.07;;
27402;SDS011;14862;49.494;8.530;2023-04-03T04:30:58;8.50;;;4.15;;
27402;SDS011;14862;49.494;8.530;2023-04-03T04:33:23;6.78;;;4.43;;
27402;SDS011;14862;49.494;8.530;2023-04-03T04:35:48;5.78;;;4.50;;
27402;SDS011;14862;49.494;8.530;2023-04-03T04:38:14;7.03;;;4.43;;
27402;SDS011;14862;49.494;8.530;2023-04-03T04:40:39;5.53;;;4.60;;
27402;SDS011;14862;49.494;8.530;2023-04-03T04:43:05;6.97;;;4.47;;
27402;SDS011;14862;49.494;8.530;2023-04-03T04:45:30;9.13;;;5.10;;
27402;SDS011;14862;49.494;8.530;2023-04-03T04:47:56;8.80;;;5.63;;
27402;SDS011;14862;49.494;8.530;2023-04-03T04:50:21;6.93;;;4.88;;
27402;SDS011;14862;49.494;8.530;2023-04-03T04:52:46;8.02;;;4.70;;
27402;SDS011;14862;49.494;8.530;2023-04-03T04:55:12;8.95;;;4.78;;
27402;SDS011;14862;49.494;8.530;2023-04-03T04:57:37;11.13;;;4.55;;
27402;SDS011;14862;49.494;8.530;2023-04-03T05:00:03;8.55;;;5.13;;
27402;SDS011;14862;49.494;8.530;2023-04-03T05:02:29;6.43;;;5.03;;
27402;SDS011;14862;49.494;8.530;2023-04-03T05:04:58;8.93;;;5.15;;
27402;SDS011;14862;49.494;8.530;2023-04-03T05:07:24;8.27;;;5.20;;
27402;SDS011;14862;49.494;8.530;2023-04-03T05:09:49;9.13;;;5.15;;
27402;SDS011;14862;49.494;8.530;2023-04-03T05:12:14;11.07;;;5.00;;
27402;SDS011;14862;49.494;8.530;2023-04-03T05:14:39;8.73;;;5.85;;
27402;SDS011;14862;49.494;8.530;2023-04-03T05:17:05;7.60;;;5.63;;
27402;SDS011;14862;49.494;8.530;2023-04-03T05:19:30;7.00;;;4.70;;
27402;SDS011;14862;49.494;8.530;2023-04-03T05:21:55;8.02;;;5.00;;
27402;SDS011;14862;49.494;8.530;2023-04-03T05:24:20;7.63;;;3.95;;
27402;SDS011;14862;49.494;8.530;2023-04-03T05:26:45;8.45;;;4.95;;
27402;SDS011;14862;49.494;8.530;2023-04-03T05:29:11;5.32;;;3.40;;
27402;SDS011;14862;49.494;8.530;2023-04-03T05:31:36;4.90;;;3.70;;
27402;SDS011;14862;49.494;8.530;2023-04-03T05:34:01;6.00;;;3.13;;
27402;SDS011;14862;49.494;8.530;2023-04-03T05:36:27;7.57;;;3.75;;
27402;SDS011;14862;49.494;8.530;2023-04-03T05:38:52;3.63;;;2.90;;
27402;SDS011;14862;49.494;8.530;2023-04-03T05:41:18;5.10;;;3.00;;
27402;SDS011;14862;49.494;8.530;2023-04-03T05:43:43;5.15;;;3.15;;
27402;SDS011;14862;49.494;8.530;2023-04-03T05:46:12;5.32;;;3.00;;
27402;SDS011;14862;49.494;8.530;2023-04-03T05:48:38;4.78;;;3.03;;
27402;SDS011;14862;49.494;8.530;2023-04-03T05:51:04;5.13;;;3.15;;
27402;SDS011;14862;49.494;8.530;2023-04-03T05:53:30;5.78;;;2.70;;
27402;SDS011;14862;49.494;8.530;2023-04-03T05:55:56;4.10;;;2.95;;
27402;SDS011;14862;49.494;8.530;2023-04-03T05:58:22;4.00;;;2.80;;
27402;SDS011;14862;49.494;8.530;2023-04-03T06:00:47;7.70;;;2.55;;
27402;SDS011;14862;49.494;8.530;2023-04-03T06:03:12;3.03;;;2.50;;
27402;SDS011;14862;49.494;8.530;2023-04-03T06:05:37;4.30;;;2.80;;
27402;SDS011;14862;49.494;8.530;2023-04-03T06:08:02;7.13;;;2.72;;
27402;SDS011;14862;49.494;8.530;2023-04-03T06:10:28;4.78;;;3.67;;
27402;SDS011;14862;49.494;8.530;2023-04-03T06:12:53;5.38;;;3.03;;
27402;SDS011;14862;49.494;8.530;2023-04-03T06:15:18;4.45;;;2.40;;
27402;SDS011;14862;49.494;8.530;2023-04-03T06:17:45;4.18;;;2.67;;
27402;SDS011;14862;49.494;8.530;2023-04-03T06:20:10;4.88;;;2.80;;
27402;SDS011;14862;49.494;8.530;2023-04-03T06:22:36;4.07;;;2.78;;
27402;SDS011;14862;49.494;8.530;2023-04-03T06:25:01;4.93;;;2.95;;
27402;SDS011;14862;49.494;8.530;2023-04-03T06:27:27;5.40;;;2.92;;
27402;SDS011;14862;49.494;8.530;2023-04-03T06:29:52;7.55;;;3.13;;
27402;SDS011;14862;49.494;8.530;2023-04-03T06:32:20;6.43;;;2.97;;
27402;SDS011;14862;49.494;8.530;2023-04-03T06:34:45;5.15;;;2.75;;
27402;SDS011;14862;49.494;8.530;2023-04-03T06:37:15;6.20;;;2.70;;
27402;SDS011;14862;49.494;8.530;2023-04-03T06:39:41;6.05;;;2.72;;
27402;SDS011;14862;49.494;8.530;2023-04-03T06:42:07;3.90;;;2.50;;
27402;SDS011;14862;49.494;8.530;2023-04-03T06:44:32;5.27;;;2.60;;
27402;SDS011;14862;49.494;8.530;2023-04-03T06:46:58;3.97;;;2.50;;
27402;SDS011;14862;49.494;8.530;2023-04-03T06:49:24;3.57;;;2.63;;
27402;SDS011;14862;49.494;8.530;2023-04-03T06:51:50;6.88;;;2.80;;
27402;SDS011;14862;49.494;8.530;2023-04-03T06:54:15;3.57;;;2.33;;
27402;SDS011;14862;49.494;8.530;2023-04-03T06:56:41;6.15;;;2.63;;
27402;SDS011;14862;49.494;8.530;2023-04-03T06:59:06;6.57;;;2.35;;
27402;SDS011;14862;49.494;8.530;2023-04-03T07:01:32;3.05;;;2.20;;
27402;SDS011;14862;49.494;8.530;2023-04-03T07:03:57;5.32;;;2.45;;
27402;SDS011;14862;49.494;8.530;2023-04-03T07:06:22;3.92;;;2.33;;
27402;SDS011;14862;49.494;8.530;2023-04-03T07:08:48;10.85;;;2.63;;
27402;SDS011;14862;49.494;8.530;2023-04-03T07:11:14;4.90;;;2.13;;
27402;SDS011;14862;49.494;8.530;2023-04-03T07:13:39;6.10;;;2.50;;
27402;SDS011;14862;49.494;8.530;2023-04-03T07:16:05;5.32;;;2.50;;
27402;SDS011;14862;49.494;8.530;2023-04-03T07:18:31;7.18;;;2.40;;
27402;SDS011;14862;49.494;8.530;2023-04-03T07:20:57;3.47;;;2.35;;
27402;SDS011;14862;49.494;8.530;2023-04-03T07:23:22;3.72;;;2.55;;
27402;SDS011;14862;49.494;8.530;2023-04-03T07:25:48;7.95;;;2.35;;
27402;SDS011;14862;49.494;8.530;2023-04-03T07:28:15;8.27;;;2.60;;
27402;SDS011;14862;49.494;8.530;2023-04-03T07:30:44;6.22;;;2.35;;
27402;SDS011;14862;49.494;8.530;2023-04-03T07:33:10;4.72;;;2.33;;
27402;SDS011;14862;49.494;8.530;2023-04-03T07:35:35;3.83;;;2.10;;
27402;SDS011;14862;49.494;8.530;2023-04-03T07:38:00;4.03;;;2.33;;
27402;SDS011;14862;49.494;8.530;2023-04-03T07:40:26;9.32;;;2.67;;
27402;SDS011;14862;49.494;8.530;2023-04-03T07:42:51;5.32;;;2.63;;
27402;SDS011;14862;49.494;8.530;2023-04-03T07:45:17;5.28;;;2.42;;
27402;SDS011;14862;49.494;8.530;2023-04-03T07:47:42;5.20;;;2.50;;
27402;SDS011;14862;49.494;8.530;2023-04-03T07:50:07;2.28;;;1.70;;
27402;SDS011;14862;49.494;8.530;2023-04-03T07:52:33;4.90;;;2.20;;
27402;SDS011;14862;49.494;8.530;2023-04-03T07:54:58;5.22;;;2.15;;
27402;SDS011;14862;49.494;8.530;2023-04-03T07:57:23;5.80;;;2.13;;
27402;SDS011;14862;49.494;8.530;2023-04-03T07:59:48;5.38;;;2.35;;
27402;SDS011;14862;49.494;8.530;2023-04-03T08:02:14;4.28;;;1.95;;
27402;SDS011;14862;49.494;8.530;2023-04-03T08:04:39;4.15;;;2.55;;
27402;SDS011;14862;49.494;8.530;2023-04-03T08:07:04;2.33;;;2.00;;
27402;SDS011;14862;49.494;8.530;2023-04-03T08:09:30;5.57;;;2.58;;
27402;SDS011;14862;49.494;8.530;2023-04-03T08:11:56;3.13;;;1.60;;
27402;SDS011;14862;49.494;8.530;2023-04-03T08:14:21;3.72;;;1.67;;
27402;SDS011;14862;49.494;8.530;2023-04-03T08:16:47;2.60;;;1.60;;
27402;SDS011;14862;49.494;8.530;2023-04-03T08:19:12;5.93;;;2.13;;
27402;SDS011;14862;49.494;8.530;2023-04-03T08:21:39;4.15;;;1.85;;
27402;SDS011;14862;49.494;8.530;2023-04-03T08:24:06;3.38;;;1.95;;
27402;SDS011;14862;49.494;8.530;2023-04-03T08:26:31;2.20;;;1.38;;
27402;SDS011;14862;49.494;8.530;2023-04-03T08:28:57;1.77;;;1.35;;
27402;SDS011;14862;49.494;8.530;2023-04-03T08:31:22;3.90;;;1.77;;
27402;SDS011;14862;49.494;8.530;2023-04-03T08:33:48;3.38;;;1.60;;
27402;SDS011;14862;49.494;8.530;2023-04-03T08:36:18;3.05;;;1.50;;
27402;SDS011;14862;49.494;8.530;2023-04-03T08:38:44;2.63;;;1.65;;
27402;SDS011;14862;49.494;8.530;2023-04-03T08:41:28;4.40;;;1.73;;
27402;SDS011;14862;49.494;8.530;2023-04-03T08:46:21;2.45;;;1.50;;
27402;SDS011;14862;49.494;8.530;2023-04-03T08:48:47;2.17;;;1.33;;
27402;SDS011;14862;49.494;8.530;2023-04-03T08:51:15;3.97;;;1.40;;
27402;SDS011;14862;49.494;8.530;2023-04-03T08:53:42;1.42;;;1.23;;
27402;SDS011;14862;49.494;8.530;2023-04-03T08:56:09;4.45;;;1.70;;
27402;SDS011;14862;49.494;8.530;2023-04-03T09:03:43;2.55;;;1.27;;
27402;SDS011;14862;49.494;8.530;2023-04-03T09:08:45;1.92;;;1.13;;
27402;SDS011;14862;49.494;8.530;2023-04-03T09:11:26;2.75;;;1.60;;
27402;SDS011;14862;49.494;8.530;2023-04-03T09:14:01;3.45;;;1.40;;
27402;SDS011;14862;49.494;8.530;2023-04-03T09:21:50;2.38;;;1.45;;
27402;SDS011;14862;49.494;8.530;2023-04-03T09:24:16;2.85;;;1.38;;
27402;SDS011;14862;49.494;8.530;2023-04-03T09:29:08;7.47;;;1.48;;
27402;SDS011;14862;49.494;8.530;2023-04-03T09:31:38;2.10;;;1.65;;
27402;SDS011;14862;49.494;8.530;2023-04-03T09:34:23;6.00;;;1.65;;
27402;SDS011;14862;49.494;8.530;2023-04-03T09:36:50;2.60;;;1.20;;
27402;SDS011;14862;49.494;8.530;2023-04-03T09:39:58;3.90;;;2.08;;
27402;SDS011;14862;49.494;8.530;2023-04-03T09:42:05;3.80;;;1.85;;
27402;SDS011;14862;49.494;8.530;2023-04-03T09:44:31;4.85;;;3.63;;
27402;SDS011;14862;49.494;8.530;2023-04-03T09:46:57;4.35;;;1.58;;
27402;SDS011;14862;49.494;8.530;2023-04-03T09:49:23;3.70;;;1.42;;
27402;SDS011;14862;49.494;8.530;2023-04-03T09:51:49;3.70;;;1.63;;
27402;SDS011;14862;49.494;8.530;2023-04-03T09:57:10;2.28;;;1.95;;
27402;SDS011;14862;49.494;8.530;2023-04-03T09:59:58;3.40;;;1.30;;
27402;SDS011;14862;49.494;8.530;2023-04-03T10:04:58;2.35;;;1.13;;
27402;SDS011;14862;49.494;8.530;2023-04-03T10:07:34;4.55;;;1.63;;
27402;SDS011;14862;49.494;8.530;2023-04-03T10:10:03;3.22;;;1.30;;
27402;SDS011;14862;49.494;8.530;2023-04-03T10:12:28;3.03;;;1.15;;
27402;SDS011;14862;49.494;8.530;2023-04-03T10:15:10;3.25;;;1.30;;
27402;SDS011;14862;49.494;8.530;2023-04-03T10:17:51;3.42;;;1.08;;
27402;SDS011;14862;49.494;8.530;2023-04-03T10:30:48;5.25;;;1.90;;
27402;SDS011;14862;49.494;8.530;2023-04-03T10:38:23;3.92;;;1.30;;
27402;SDS011;14862;49.494;8.530;2023-04-03T10:41:12;3.95;;;1.63;;
27402;SDS011;14862;49.494;8.530;2023-04-03T10:43:43;2.53;;;1.20;;
27402;SDS011;14862;49.494;8.530;2023-04-03T10:46:17;2.35;;;1.13;;
27402;SDS011;14862;49.494;8.530;2023-04-03T10:53:56;4.28;;;1.35;;
27402;SDS011;14862;49.494;8.530;2023-04-03T10:56:27;2.65;;;1.35;;
27402;SDS011;14862;49.494;8.530;2023-04-03T10:58:56;4.50;;;1.58;;
27402;SDS011;14862;49.494;8.530;2023-04-03T11:01:29;3.97;;;1.45;;
27402;SDS011;14862;49.494;8.530;2023-04-03T11:03:59;4.25;;;1.10;;
27402;SDS011;14862;49.494;8.530;2023-04-03T11:06:26;2.25;;;1.45;;
27402;SDS011;14862;49.494;8.530;2023-04-03T11:11:25;2.70;;;1.05;;
27402;SDS011;14862;49.494;8.530;2023-04-03T11:14:03;4.32;;;1.50;;
27402;SDS011;14862;49.494;8.530;2023-04-03T11:16:30;1.92;;;1.23;;
27402;SDS011;14862;49.494;8.530;2023-04-03T11:19:05;3.40;;;1.60;;
27402;SDS011;14862;49.494;8.530;2023-04-03T11:21:37;4.25;;;1.55;;
27402;SDS011;14862;49.494;8.530;2023-04-03T11:24:05;1.83;;;1.17;;
27402;SDS011;14862;49.494;8.530;2023-04-03T11:26:36;3.33;;;1.35;;
27402;SDS011;14862;49.494;8.530;2023-04-03T11:29:08;3.97;;;1.50;;
27402;SDS011;14862;49.494;8.530;2023-04-03T11:36:50;6.13;;;1.30;;
27402;SDS011;14862;49.494;8.530;2023-04-03T11:39:22;1.58;;;1.13;;
27402;SDS011;14862;49.494;8.530;2023-04-03T11:41:48;3.53;;;1.02;;
27402;SDS011;14862;49.494;8.530;2023-04-03T11:44:30;2.80;;;1.27;;
27402;SDS011;14862;49.494;8.530;2023-04-03T11:47:00;4.53;;;1.13;;
27402;SDS011;14862;49.494;8.530;2023-04-03T11:49:50;7.38;;;1.80;;
27402;SDS011;14862;49.494;8.530;2023-04-03T11:53:01;4.30;;;1.40;;
27402;SDS011;14862;49.494;8.530;2023-04-03T11:55:01;1.30;;;1.20;;
27402;SDS011;14862;49.494;8.530;2023-04-03T12:02:54;3.67;;;1.75;;
27402;SDS011;14862;49.494;8.530;2023-04-03T12:05:27;2.42;;;1.20;;
27402;SDS011;14862;49.494;8.530;2023-04-03T12:10:37;1.90;;;1.30;;
27402;SDS011;14862;49.494;8.530;2023-04-03T12:13:12;3.88;;;1.67;;
27402;SDS011;14862;49.494;8.530;2023-04-03T12:15:44;2.50;;;1.45;;
27402;SDS011;14862;49.494;8.530;2023-04-03T12:20:57;2.60;;;1.50;;
27402;SDS011;14862;49.494;8.530;2023-04-03T12:25:48;3.27;;;1.60;;
27402;SDS011;14862;49.494;8.530;2023-04-03T12:28:14;3.40;;;1.23;;
27402;SDS011;14862;49.494;8.530;2023-04-03T12:30:40;5.63;;;1.70;;
27402;SDS011;14862;49.494;8.530;2023-04-03T12:35:36;7.47;;;1.93;;
27402;SDS011;14862;49.494;8.530;2023-04-03T12:40:48;3.05;;;1.40;;
27402;SDS011;14862;49.494;8.530;2023-04-03T12:51:13;4.07;;;1.92;;
27402;SDS011;14862;49.494;8.530;2023-04-03T12:53:38;4.53;;;1.90;;
27402;SDS011;14862;49.494;8.530;2023-04-03T12:56:20;2.55;;;1.38;;
27402;SDS011;14862;49.494;8.530;2023-04-03T12:58:47;2.92;;;1.65;;
27402;SDS011;14862;49.494;8.530;2023-04-03T13:01:13;6.22;;;1.40;;
27402;SDS011;14862;49.494;8.530;2023-04-03T13:03:40;2.05;;;1.40;;
27402;SDS011;14862;49.494;8.530;2023-04-03T13:06:06;2.65;;;1.45;;
27402;SDS011;14862;49.494;8.530;2023-04-03T13:08:31;5.50;;;1.50;;
27402;SDS011;14862;49.494;8.530;2023-04-03T13:11:05;4.82;;;1.33;;
27402;SDS011;14862;49.494;8.530;2023-04-03T13:13:31;4.47;;;1.60;;
27402;SDS011;14862;49.494;8.530;2023-04-03T13:15:56;2.53;;;1.60;;
27402;SDS011;14862;49.494;8.530;2023-04-03T13:18:32;3.25;;;1.70;;
27402;SDS011;14862;49.494;8.530;2023-04-03T13:21:03;6.65;;;1.95;;
27402;SDS011;14862;49.494;8.530;2023-04-03T13:23:29;2.92;;;1.67;;
27402;SDS011;14862;49.494;8.530;2023-04-03T13:25:56;3.70;;;1.50;;
27402;SDS011;14862;49.494;8.530;2023-04-03T13:28:25;3.20;;;1.23;;
27402;SDS011;14862;49.494;8.530;2023-04-03T13:31:06;2.75;;;1.70;;
27402;SDS011;14862;49.494;8.530;2023-04-03T13:33:32;3.88;;;1.65;;
27402;SDS011;14862;49.494;8.530;2023-04-03T13:36:03;2.28;;;1.30;;
27402;SDS011;14862;49.494;8.530;2023-04-03T13:38:30;4.88;;;1.83;;
27402;SDS011;14862;49.494;8.530;2023-04-03T13:41:00;3.42;;;1.38;;
27402;SDS011;14862;49.494;8.530;2023-04-03T13:43:28;3.28;;;1.80;;
27402;SDS011;14862;49.494;8.530;2023-04-03T13:45:58;3.80;;;1.67;;
27402;SDS011;14862;49.494;8.530;2023-04-03T13:48:24;7.38;;;2.03;;
27402;SDS011;14862;49.494;8.530;2023-04-03T13:50:58;7.82;;;2.10;;
27402;SDS011;14862;49.494;8.530;2023-04-03T13:53:24;5.35;;;2.20;;
27402;SDS011;14862;49.494;8.530;2023-04-03T14:05:55;5.78;;;1.90;;
27402;SDS011;14862;49.494;8.530;2023-04-03T14:08:20;2.90;;;1.92;;
27402;SDS011;14862;49.494;8.530;2023-04-03T14:10:47;4.60;;;1.40;;
27402;SDS011;14862;49.494;8.530;2023-04-03T14:13:14;4.25;;;1.40;;
27402;SDS011;14862;49.494;8.530;2023-04-03T14:15:40;3.15;;;1.40;;
27402;SDS011;14862;49.494;8.530;2023-04-03T14:18:06;3.03;;;1.60;;
27402;SDS011;14862;49.494;8.530;2023-04-03T14:20:31;4.07;;;1.60;;
27402;SDS011;14862;49.494;8.530;2023-04-03T14:22:56;3.30;;;1.85;;
27402;SDS011;14862;49.494;8.530;2023-04-03T14:25:22;2.90;;;1.15;;
27402;SDS011;14862;49.494;8.530;2023-04-03T14:27:49;3.30;;;1.63;;
27402;SDS011;14862;49.494;8.530;2023-04-03T14:30:20;2.50;;;1.48;;
27402;SDS011;14862;49.494;8.530;2023-04-03T14:32:46;2.78;;;1.67;;
27402;SDS011;14862;49.494;8.530;2023-04-03T14:35:12;2.88;;;1.63;;
27402;SDS011;14862;49.494;8.530;2023-04-03T14:37:37;3.00;;;1.45;;
27402;SDS011;14862;49.494;8.530;2023-04-03T14:40:03;3.58;;;1.80;;
27402;SDS011;14862;49.494;8.530;2023-04-03T14:42:30;2.47;;;1.30;;
27402;SDS011;14862;49.494;8.530;2023-04-03T14:44:56;2.78;;;1.50;;
27402;SDS011;14862;49.494;8.530;2023-04-03T14:47:25;3.33;;;1.60;;
27402;SDS011;14862;49.494;8.530;2023-04-03T14:49:52;3.63;;;1.58;;
27402;SDS011;14862;49.494;8.530;2023-04-03T14:52:19;1.90;;;1.20;;
27402;SDS011;14862;49.494;8.530;2023-04-03T14:54:45;2.55;;;1.65;;
27402;SDS011;14862;49.494;8.530;2023-04-03T14:57:10;4.70;;;2.85;;
27402;SDS011;14862;49.494;8.530;2023-04-03T14:59:37;4.25;;;1.33;;
27402;SDS011;14862;49.494;8.530;2023-04-03T15:02:05;2.80;;;1.58;;
27402;SDS011;14862;49.494;8.530;2023-04-03T15:04:34;2.22;;;1.50;;
27402;SDS011;14862;49.494;8.530;2023-04-03T15:06:59;3.22;;;1.67;;
27402;SDS011;14862;49.494;8.530;2023-04-03T15:09:25;3.63;;;1.77;;
27402;SDS011;14862;49.494;8.530;2023-04-03T15:11:52;2.17;;;1.35;;
27402;SDS011;14862;49.494;8.530;2023-04-03T15:14:18;2.60;;;1.20;;
27402;SDS011;14862;49.494;8.530;2023-04-03T15:16:43;2.83;;;1.40;;
27402;SDS011;14862;49.494;8.530;2023-04-03T15:19:09;5.22;;;1.25;;
27402;SDS011;14862;49.494;8.530;2023-04-03T15:21:34;5.95;;;1.58;;
27402;SDS011;14862;49.494;8.530;2023-04-03T15:24:00;3.67;;;1.58;;
27402;SDS011;14862;49.494;8.530;2023-04-03T15:26:26;2.70;;;1.58;;
27402;SDS011;14862;49.494;8.530;2023-04-03T15:28:51;3.53;;;1.60;;
27402;SDS011;14862;49.494;8.530;2023-04-03T15:31:16;1.70;;;1.13;;
27402;SDS011;14862;49.494;8.530;2023-04-03T15:33:41;3.00;;;1.45;;
27402;SDS011;14862;49.494;8.530;2023-04-03T15:36:07;3.25;;;1.85;;
27402;SDS011;14862;49.494;8.530;2023-04-03T15:38:32;2.33;;;1.40;;
27402;SDS011;14862;49.494;8.530;2023-04-03T15:40:57;4.82;;;1.33;;
27402;SDS011;14862;49.494;8.530;2023-04-03T15:43:23;4.35;;;1.63;;
27402;SDS011;14862;49.494;8.530;2023-04-03T15:45:48;6.43;;;1.70;;
27402;SDS011;14862;49.494;8.530;2023-04-03T15:48:14;2.47;;;1.23;;
27402;SDS011;14862;49.494;8.530;2023-04-03T15:50:39;3.42;;;1.33;;
27402;SDS011;14862;49.494;8.530;2023-04-03T15:53:05;3.33;;;1.00;;
27402;SDS011;14862;49.494;8.530;2023-04-03T15:55:31;4.18;;;1.42;;
27402;SDS011;14862;49.494;8.530;2023-04-03T15:57:57;2.40;;;1.17;;
27402;SDS011;14862;49.494;8.530;2023-04-03T16:00:23;3.63;;;1.08;;
27402;SDS011;14862;49.494;8.530;2023-04-03T16:02:50;2.15;;;1.40;;
27402;SDS011;14862;49.494;8.530;2023-04-03T16:05:15;2.00;;;1.30;;
27402;SDS011;14862;49.494;8.530;2023-04-03T16:07:42;2.35;;;1.33;;
27402;SDS011;14862;49.494;8.530;2023-04-03T16:10:07;3.95;;;1.40;;
27402;SDS011;14862;49.494;8.530;2023-04-03T16:12:33;3.17;;;1.08;;
27402;SDS011;14862;49.494;8.530;2023-04-03T16:14:58;2.88;;;1.30;;
27402;SDS011;14862;49.494;8.530;2023-04-03T16:17:24;2.60;;;1.15;;
27402;SDS011;14862;49.494;8.530;2023-04-03T16:19:51;2.67;;;1.48;;
27402;SDS011;14862;49.494;8.530;2023-04-03T16:22:16;1.73;;;1.10;;